Time;durP1;ratioP1;P1;durP2;ratioP2;P2;SDS_P1;SDS_P2;PMS_P1;PMS_P2;Temp;Humidity;BMP_temperature;BMP_pressure;BME280_temperature;BME280_humidity;BME280_pressure;Samples;Min_cycle;Max_cycle;Signal;HPM_P1;HPM_P2
2023/01/27 00:00:28;;;;;;;8.00;2.08;;;;;;;;;;5005873;28;20037;-82
2023/01/27 00:02:54;;;;;;;4.93;1.80;;;;;;;;;;5025098;28;20509;-82
2023/01/27 00:05:19;;;;;;;6.93;2.03;;;;;;;;;;5011357;28;20120;-82
2023/01/27 00:07:45;;;;;;;5.80;1.90;;;;;;;;;;5027109;28;20029;-82
2023/01/27 00:10:14;;;;;;;5.60;2.00;;;;;;;;;;5021711;28;20020;-81
2023/01/27 00:15:24;;;;;;;7.93;1.70;;;;;;;;;;5021784;28;20068;-81
2023/01/27 00:17:49;;;;;;;7.65;1.98;;;;;;;;;;5003675;28;20033;-82
2023/01/27 00:26:15;;;;;;;5.15;1.92;;;;;;;;;;5024923;28;20083;-82
2023/01/27 00:28:43;;;;;;;6.45;1.90;;;;;;;;;;5029464;28;20025;-81
2023/01/27 00:33:55;;;;;;;7.97;1.50;;;;;;;;;;5025892;28;20032;-82
2023/01/27 00:36:20;;;;;;;4.18;2.05;;;;;;;;;;5007756;28;20029;-82
2023/01/27 00:38:46;;;;;;;5.68;1.73;;;;;;;;;;5026366;28;20038;-82
2023/01/27 00:41:18;;;;;;;7.25;2.20;;;;;;;;;;5006749;28;20451;-81
2023/01/27 00:43:45;;;;;;;7.90;2.30;;;;;;;;;;5010934;28;20031;-82
2023/01/27 00:46:11;;;;;;;7.47;2.05;;;;;;;;;;5009468;28;20031;-82
2023/01/27 00:48:37;;;;;;;9.98;2.25;;;;;;;;;;5009246;28;20042;-82
2023/01/27 00:51:02;;;;;;;4.63;1.58;;;;;;;;;;5025083;28;20079;-82
2023/01/27 00:53:28;;;;;;;5.28;1.80;;;;;;;;;;5008852;28;20032;-82
2023/01/27 00:55:53;;;;;;;5.82;1.83;;;;;;;;;;5010762;28;20053;-82
2023/01/27 00:58:21;;;;;;;5.72;2.20;;;;;;;;;;5012902;28;20029;-82
2023/01/27 01:00:46;;;;;;;7.65;2.33;;;;;;;;;;5029361;28;20492;-82
2023/01/27 01:03:12;;;;;;;8.05;2.10;;;;;;;;;;5032096;28;20021;-82
2023/01/27 01:05:37;;;;;;;2.92;1.60;;;;;;;;;;5005394;28;20029;-82
2023/01/27 01:08:02;;;;;;;4.40;1.70;;;;;;;;;;5006952;28;20037;-82
2023/01/27 01:10:28;;;;;;;8.93;1.90;;;;;;;;;;5013140;28;20022;-82
2023/01/27 01:12:53;;;;;;;7.88;2.17;;;;;;;;;;5008977;28;20033;-82
2023/01/27 01:15:19;;;;;;;6.10;2.40;;;;;;;;;;5028089;28;20363;-82
2023/01/27 01:17:44;;;;;;;5.75;2.33;;;;;;;;;;5010766;28;20108;-82
2023/01/27 01:20:10;;;;;;;4.30;2.20;;;;;;;;;;5011488;28;20088;-82
2023/01/27 01:22:35;;;;;;;4.20;2.10;;;;;;;;;;5027599;28;20103;-82
2023/01/27 01:25:01;;;;;;;7.32;2.47;;;;;;;;;;5030469;28;20041;-82
2023/01/27 01:27:26;;;;;;;4.20;2.00;;;;;;;;;;5023463;28;20546;-82
2023/01/27 01:29:52;;;;;;;7.18;2.10;;;;;;;;;;5024174;28;20075;-82
2023/01/27 01:32:17;;;;;;;5.65;2.33;;;;;;;;;;5010968;28;20094;-82
2023/01/27 01:34:42;;;;;;;7.20;2.20;;;;;;;;;;5006168;28;20033;-82
2023/01/27 01:37:08;;;;;;;7.72;2.58;;;;;;;;;;5016376;28;20022;-82
2023/01/27 01:42:49;;;;;;;5.45;2.15;;;;;;;;;;5029070;28;20080;-81
2023/01/27 01:45:30;;;;;;;4.93;2.30;;;;;;;;;;5012205;28;20392;-82
2023/01/27 01:47:56;;;;;;;5.50;2.35;;;;;;;;;;5029484;28;20543;-82
2023/01/27 01:50:22;;;;;;;7.00;2.22;;;;;;;;;;5025353;28;20481;-81
2023/01/27 01:52:47;;;;;;;4.88;2.17;;;;;;;;;;5028937;28;20044;-82
2023/01/27 01:55:13;;;;;;;6.00;2.72;;;;;;;;;;5030369;28;20527;-82
2023/01/27 01:57:41;;;;;;;6.85;2.42;;;;;;;;;;5025790;28;20025;-82
2023/01/27 02:00:08;;;;;;;4.13;2.28;;;;;;;;;;5011351;28;20083;-81
2023/01/27 02:02:35;;;;;;;7.18;2.58;;;;;;;;;;5029817;28;20116;-81
2023/01/27 02:05:07;;;;;;;5.13;2.47;;;;;;;;;;5007647;28;20036;-82
2023/01/27 02:08:09;;;;;;;5.68;2.60;;;;;;;;;;5011843;28;20104;-81
2023/01/27 02:10:35;;;;;;;7.00;2.45;;;;;;;;;;5015039;28;20512;-82
2023/01/27 02:13:00;;;;;;;6.38;2.60;;;;;;;;;;5029924;28;20052;-82
2023/01/27 02:15:28;;;;;;;5.07;2.38;;;;;;;;;;5026525;28;20018;-82
2023/01/27 02:17:53;;;;;;;9.98;3.05;;;;;;;;;;5006268;28;20033;-81
2023/01/27 02:20:37;;;;;;;9.30;3.13;;;;;;;;;;5006971;28;20037;-82
2023/01/27 02:23:25;;;;;;;6.18;3.10;;;;;;;;;;5024965;28;20108;-82
2023/01/27 02:25:57;;;;;;;7.00;2.92;;;;;;;;;;5023283;28;20091;-82
2023/01/27 02:28:26;;;;;;;9.50;3.20;;;;;;;;;;5023719;28;20476;-81
2023/01/27 02:30:52;;;;;;;9.05;3.55;;;;;;;;;;5024437;28;20462;-81
2023/01/27 02:33:17;;;;;;;7.32;3.42;;;;;;;;;;5007045;28;20061;-82
2023/01/27 02:36:06;;;;;;;8.32;3.40;;;;;;;;;;5027902;28;20485;-81
2023/01/27 02:38:35;;;;;;;7.10;3.08;;;;;;;;;;5002144;28;20040;-81
2023/01/27 02:41:28;;;;;;;11.20;3.55;;;;;;;;;;5019580;28;20030;-81
2023/01/27 02:43:53;;;;;;;8.23;3.20;;;;;;;;;;5026054;28;20408;-81
2023/01/27 02:46:19;;;;;;;8.70;3.90;;;;;;;;;;5010163;28;20029;-81
2023/01/27 02:48:44;;;;;;;7.75;3.30;;;;;;;;;;5029918;28;20021;-82
2023/01/27 02:51:10;;;;;;;8.30;3.67;;;;;;;;;;5011756;28;20086;-82
2023/01/27 02:53:36;;;;;;;6.13;3.15;;;;;;;;;;5012467;28;20064;-82
2023/01/27 02:56:01;;;;;;;7.05;3.00;;;;;;;;;;5011138;28;20033;-81
2023/01/27 02:58:26;;;;;;;8.38;3.28;;;;;;;;;;5010144;28;20033;-81
2023/01/27 03:00:52;;;;;;;8.55;3.70;;;;;;;;;;5024945;28;20079;-81
2023/01/27 03:03:17;;;;;;;7.68;3.35;;;;;;;;;;4989851;28;20034;-81
2023/01/27 03:05:44;;;;;;;9.07;3.80;;;;;;;;;;5034193;28;20477;-82
2023/01/27 03:08:10;;;;;;;7.43;3.25;;;;;;;;;;5010612;28;20033;-81
2023/01/27 03:10:35;;;;;;;8.85;3.45;;;;;;;;;;5028201;28;20029;-82
2023/01/27 03:13:01;;;;;;;7.88;3.55;;;;;;;;;;5013085;28;20029;-82
2023/01/27 03:18:15;;;;;;;8.55;3.60;;;;;;;;;;5025589;28;20040;-81
2023/01/27 03:20:43;;;;;;;8.93;3.70;;;;;;;;;;5027229;28;20042;-81
2023/01/27 03:23:10;;;;;;;6.88;3.58;;;;;;;;;;5024720;28;20022;-81
2023/01/27 03:25:39;;;;;;;7.68;3.53;;;;;;;;;;5030244;28;20082;-81
2023/01/27 03:28:04;;;;;;;8.85;3.92;;;;;;;;;;5009869;28;20404;-82
2023/01/27 03:30:30;;;;;;;11.32;3.90;;;;;;;;;;5005618;28;20034;-81
2023/01/27 03:32:55;;;;;;;8.15;4.07;;;;;;;;;;5023084;28;20026;-81
2023/01/27 03:35:22;;;;;;;7.55;3.80;;;;;;;;;;5011260;28;20025;-81
2023/01/27 03:46:17;;;;;;;9.93;4.60;;;;;;;;;;5026638;28;20032;-82
2023/01/27 03:48:49;;;;;;;10.00;4.45;;;;;;;;;;5011743;28;20021;-82
2023/01/27 03:51:14;;;;;;;14.77;4.95;;;;;;;;;;5028506;28;20037;-81
2023/01/27 03:53:40;;;;;;;10.23;4.65;;;;;;;;;;5007889;28;20033;-81
2023/01/27 03:56:06;;;;;;;9.70;4.65;;;;;;;;;;5025745;28;20029;-80
2023/01/27 03:58:34;;;;;;;10.25;5.05;;;;;;;;;;5024457;28;20025;-81
2023/01/27 04:01:04;;;;;;;12.75;5.50;;;;;;;;;;5005982;28;20041;-81
2023/01/27 04:09:08;;;;;;;10.27;5.63;;;;;;;;;;5023196;28;20035;-82
2023/01/27 04:14:17;;;;;;;10.10;5.15;;;;;;;;;;5024347;28;20390;-81
2023/01/27 04:16:43;;;;;;;12.75;5.93;;;;;;;;;;5008222;28;20021;-82
2023/01/27 04:19:10;;;;;;;13.50;6.18;;;;;;;;;;5004762;28;20104;-82
2023/01/27 04:21:36;;;;;;;13.40;6.10;;;;;;;;;;5006521;28;20378;-82
2023/01/27 04:24:03;;;;;;;9.57;5.43;;;;;;;;;;5027809;28;20072;-81
2023/01/27 04:26:32;;;;;;;11.77;5.63;;;;;;;;;;5018127;28;20111;-81
2023/01/27 04:28:59;;;;;;;11.05;6.00;;;;;;;;;;5005592;28;20037;-81
2023/01/27 04:31:25;;;;;;;10.55;5.93;;;;;;;;;;5021685;28;20034;-82
2023/01/27 04:33:50;;;;;;;11.25;5.88;;;;;;;;;;5003664;28;20025;-82
2023/01/27 04:36:16;;;;;;;12.27;6.20;;;;;;;;;;4997450;28;20156;-80
2023/01/27 04:38:42;;;;;;;13.07;6.40;;;;;;;;;;4983886;28;20500;-81
2023/01/27 04:41:07;;;;;;;11.90;6.03;;;;;;;;;;5010449;28;20091;-82
2023/01/27 04:43:33;;;;;;;13.95;5.75;;;;;;;;;;5026477;28;20033;-81
2023/01/27 04:45:58;;;;;;;10.65;5.70;;;;;;;;;;5008666;28;20026;-82
2023/01/27 04:48:24;;;;;;;10.30;5.47;;;;;;;;;;5030018;28;20029;-81
2023/01/27 04:50:49;;;;;;;11.85;5.70;;;;;;;;;;5025401;28;20052;-82
2023/01/27 04:53:14;;;;;;;9.55;4.75;;;;;;;;;;5006642;28;20025;-82
2023/01/27 04:55:46;;;;;;;9.20;5.13;;;;;;;;;;5007629;28;20038;-81
2023/01/27 04:58:12;;;;;;;10.45;5.07;;;;;;;;;;5023657;28;20026;-82
2023/01/27 05:00:38;;;;;;;12.02;5.53;;;;;;;;;;5008837;28;20448;-81
2023/01/27 05:03:04;;;;;;;8.82;5.00;;;;;;;;;;5020609;28;20104;-81
2023/01/27 05:05:31;;;;;;;9.15;4.88;;;;;;;;;;5012225;28;20044;-82
2023/01/27 05:08:00;;;;;;;8.07;4.57;;;;;;;;;;5002602;28;20116;-82
2023/01/27 05:10:27;;;;;;;7.53;3.88;;;;;;;;;;5015019;28;20045;-82
2023/01/27 05:12:52;;;;;;;8.27;4.32;;;;;;;;;;4991563;28;20030;-81
2023/01/27 05:15:18;;;;;;;7.45;3.85;;;;;;;;;;5001470;28;20029;-81
2023/01/27 05:17:43;;;;;;;6.90;3.95;;;;;;;;;;5026588;28;20026;-81
2023/01/27 05:20:09;;;;;;;7.22;3.85;;;;;;;;;;5017531;28;20026;-81
2023/01/27 05:22:35;;;;;;;8.38;4.10;;;;;;;;;;5004851;28;20048;-81
2023/01/27 05:25:00;;;;;;;8.70;3.88;;;;;;;;;;5005542;28;20507;-81
2023/01/27 05:27:25;;;;;;;9.57;3.83;;;;;;;;;;5005157;28;20028;-81
2023/01/27 05:29:51;;;;;;;7.03;3.88;;;;;;;;;;5003582;28;20036;-82
2023/01/27 05:32:16;;;;;;;7.63;3.88;;;;;;;;;;5021743;28;20080;-81
2023/01/27 05:34:42;;;;;;;7.25;3.85;;;;;;;;;;5020357;28;20444;-81
2023/01/27 05:37:07;;;;;;;7.53;3.53;;;;;;;;;;5006657;28;20473;-81
2023/01/27 05:39:33;;;;;;;7.88;4.10;;;;;;;;;;5020889;28;20469;-81
2023/01/27 05:41:58;;;;;;;8.43;3.90;;;;;;;;;;5012435;28;20394;-81
2023/01/27 05:44:24;;;;;;;7.88;3.53;;;;;;;;;;5028807;28;20482;-82
2023/01/27 05:46:49;;;;;;;7.15;3.72;;;;;;;;;;5024167;28;20033;-81
2023/01/27 05:49:14;;;;;;;6.63;3.25;;;;;;;;;;5013732;28;20489;-81
2023/01/27 05:51:40;;;;;;;6.82;3.60;;;;;;;;;;5006584;28;20025;-81
2023/01/27 05:54:06;;;;;;;6.07;3.60;;;;;;;;;;5025634;28;20029;-81
2023/01/27 05:56:32;;;;;;;6.45;3.47;;;;;;;;;;5006387;28;20481;-82
2023/01/27 05:58:58;;;;;;;7.35;3.15;;;;;;;;;;5025856;28;20037;-81
2023/01/27 06:01:29;;;;;;;6.25;3.40;;;;;;;;;;5007172;28;20075;-81
2023/01/27 06:03:55;;;;;;;8.55;3.35;;;;;;;;;;5007069;28;20497;-82
2023/01/27 06:06:22;;;;;;;7.53;3.45;;;;;;;;;;5010030;28;20068;-81
2023/01/27 06:08:48;;;;;;;5.95;3.50;;;;;;;;;;5009674;28;20044;-81
2023/01/27 06:11:16;;;;;;;6.32;3.35;;;;;;;;;;5025870;28;20033;-81
2023/01/27 06:13:42;;;;;;;6.65;3.53;;;;;;;;;;5024906;28;20527;-82
2023/01/27 06:16:10;;;;;;;5.95;3.30;;;;;;;;;;5022096;28;20026;-82
2023/01/27 06:18:37;;;;;;;5.95;3.30;;;;;;;;;;5009862;28;20033;-81
2023/01/27 06:21:04;;;;;;;6.35;3.20;;;;;;;;;;4998459;28;20115;-81
2023/01/27 06:23:30;;;;;;;5.82;3.28;;;;;;;;;;5022130;28;20116;-81
2023/01/27 06:25:59;;;;;;;6.47;3.55;;;;;;;;;;5026923;28;20100;-81
2023/01/27 06:28:25;;;;;;;6.82;3.40;;;;;;;;;;5002634;28;20067;-81
2023/01/27 06:30:51;;;;;;;5.35;2.80;;;;;;;;;;5022733;28;20026;-81
2023/01/27 06:33:17;;;;;;;6.03;3.10;;;;;;;;;;4994837;28;20505;-82
2023/01/27 06:35:42;;;;;;;5.82;3.25;;;;;;;;;;5026997;28;20021;-81
2023/01/27 06:38:11;;;;;;;6.32;2.92;;;;;;;;;;5021972;28;20034;-81
2023/01/27 06:40:37;;;;;;;5.05;2.83;;;;;;;;;;5029869;28;20028;-81
2023/01/27 06:43:02;;;;;;;6.15;3.50;;;;;;;;;;5020202;28;20025;-81
2023/01/27 06:45:28;;;;;;;5.10;2.65;;;;;;;;;;5012018;28;20405;-81
2023/01/27 06:47:55;;;;;;;5.40;3.00;;;;;;;;;;5010578;28;20116;-82
2023/01/27 06:50:22;;;;;;;6.28;2.70;;;;;;;;;;5013078;28;20030;-81
2023/01/27 06:52:47;;;;;;;5.50;2.72;;;;;;;;;;5026385;28;20079;-81
2023/01/27 06:55:12;;;;;;;4.65;2.60;;;;;;;;;;5010936;28;20029;-82
2023/01/27 06:57:38;;;;;;;4.78;2.80;;;;;;;;;;5007068;28;20053;-82
2023/01/27 07:00:04;;;;;;;6.60;2.65;;;;;;;;;;5026750;28;20032;-81
2023/01/27 07:02:30;;;;;;;5.00;2.85;;;;;;;;;;5024888;28;20537;-82
2023/01/27 07:04:55;;;;;;;5.85;2.72;;;;;;;;;;5022089;28;20104;-81
2023/01/27 07:07:20;;;;;;;5.63;2.95;;;;;;;;;;5008052;28;20080;-81
2023/01/27 07:09:46;;;;;;;5.57;2.72;;;;;;;;;;5006304;28;20469;-81
2023/01/27 07:12:11;;;;;;;7.57;3.05;;;;;;;;;;5016426;28;20029;-81
2023/01/27 07:14:37;;;;;;;6.25;3.13;;;;;;;;;;5009629;28;20030;-81
2023/01/27 07:17:02;;;;;;;6.03;3.17;;;;;;;;;;5015535;28;20036;-81
2023/01/27 07:19:27;;;;;;;4.43;2.72;;;;;;;;;;5027427;28;20394;-81
2023/01/27 07:21:53;;;;;;;6.13;2.95;;;;;;;;;;5006414;28;20120;-81
2023/01/27 07:24:18;;;;;;;5.47;2.88;;;;;;;;;;5002770;28;20022;-81
2023/01/27 07:26:46;;;;;;;4.60;2.60;;;;;;;;;;5012675;28;20018;-82
2023/01/27 07:29:12;;;;;;;5.32;2.75;;;;;;;;;;5031267;28;20051;-81
2023/01/27 07:31:37;;;;;;;6.03;2.53;;;;;;;;;;5025531;28;20103;-81
2023/01/27 07:34:03;;;;;;;5.35;3.03;;;;;;;;;;5007352;28;20049;-81
2023/01/27 07:36:28;;;;;;;4.90;2.58;;;;;;;;;;5005170;28;20079;-82
2023/01/27 07:38:54;;;;;;;5.22;2.85;;;;;;;;;;5021167;28;20033;-82
2023/01/27 07:41:21;;;;;;;5.63;3.17;;;;;;;;;;5020000;28;20029;-82
2023/01/27 07:43:47;;;;;;;5.40;2.88;;;;;;;;;;5022877;28;20021;-81
2023/01/27 07:46:12;;;;;;;4.88;2.50;;;;;;;;;;5007635;28;20037;-81
2023/01/27 07:48:38;;;;;;;4.88;2.85;;;;;;;;;;5029937;28;20049;-82
2023/01/27 07:51:03;;;;;;;8.38;3.35;;;;;;;;;;5013787;28;20025;-82
2023/01/27 07:53:29;;;;;;;6.05;2.97;;;;;;;;;;5014576;28;20030;-82
2023/01/27 07:55:54;;;;;;;5.20;3.03;;;;;;;;;;5025845;28;20036;-81
2023/01/27 07:58:20;;;;;;;4.82;2.72;;;;;;;;;;5013563;28;20087;-82
2023/01/27 08:00:45;;;;;;;4.68;2.60;;;;;;;;;;5031861;28;20363;-82
2023/01/27 08:03:22;;;;;;;5.80;3.00;;;;;;;;;;5031431;28;20021;-82
2023/01/27 08:05:48;;;;;;;5.47;3.33;;;;;;;;;;5007605;28;20031;-82
2023/01/27 08:08:13;;;;;;;5.00;3.20;;;;;;;;;;5014590;28;20029;-81
2023/01/27 08:10:39;;;;;;;5.88;3.40;;;;;;;;;;5025944;28;20423;-81
2023/01/27 08:13:04;;;;;;;6.13;2.85;;;;;;;;;;5011541;28;20025;-82
2023/01/27 08:15:30;;;;;;;6.75;3.20;;;;;;;;;;5009683;28;20083;-81
2023/01/27 08:17:57;;;;;;;6.63;3.95;;;;;;;;;;5013193;28;20074;-81
2023/01/27 08:20:25;;;;;;;5.22;3.00;;;;;;;;;;5030677;28;20445;-81
2023/01/27 08:22:50;;;;;;;4.90;2.70;;;;;;;;;;5028665;28;20499;-82
2023/01/27 08:25:16;;;;;;;6.30;2.60;;;;;;;;;;5012228;28;20026;-82
2023/01/27 08:27:41;;;;;;;5.22;2.83;;;;;;;;;;5010747;28;20029;-82
2023/01/27 08:30:07;;;;;;;6.57;3.22;;;;;;;;;;5011113;28;20044;-82
2023/01/27 08:32:33;;;;;;;4.72;2.50;;;;;;;;;;5008794;28;20037;-82
2023/01/27 08:34:59;;;;;;;5.03;2.70;;;;;;;;;;5023246;28;20036;-81
2023/01/27 08:37:24;;;;;;;3.78;2.08;;;;;;;;;;5024940;28;20033;-82
2023/01/27 08:39:50;;;;;;;5.05;2.35;;;;;;;;;;5012636;28;20033;-82
2023/01/27 08:42:15;;;;;;;3.63;2.05;;;;;;;;;;5029686;28;20033;-81
2023/01/27 08:44:41;;;;;;;3.28;1.92;;;;;;;;;;5011019;28;20026;-81
2023/01/27 08:47:06;;;;;;;3.65;2.15;;;;;;;;;;5028676;28;20071;-82
2023/01/27 08:49:32;;;;;;;3.85;2.10;;;;;;;;;;5011715;28;20036;-82
2023/01/27 08:51:57;;;;;;;3.80;2.20;;;;;;;;;;5011181;28;20108;-81
2023/01/27 08:54:23;;;;;;;4.20;2.22;;;;;;;;;;5011849;28;20038;-81
2023/01/27 08:56:48;;;;;;;3.58;2.03;;;;;;;;;;5030541;28;20470;-81
2023/01/27 08:59:14;;;;;;;4.95;2.38;;;;;;;;;;5029583;28;20084;-82
2023/01/27 09:01:40;;;;;;;5.25;2.22;;;;;;;;;;5006625;28;20033;-81
2023/01/27 09:04:06;;;;;;;3.78;1.92;;;;;;;;;;5005583;28;20501;-81
2023/01/27 09:06:31;;;;;;;3.25;1.85;;;;;;;;;;5029110;28;20073;-82
2023/01/27 09:09:09;;;;;;;2.95;1.75;;;;;;;;;;5011143;28;20686;-81
2023/01/27 09:11:36;;;;;;;3.75;2.03;;;;;;;;;;5028842;28;20421;-81
2023/01/27 09:14:02;;;;;;;3.38;1.95;;;;;;;;;;5014459;28;20481;-82
2023/01/27 09:16:28;;;;;;;4.65;2.20;;;;;;;;;;5032457;28;20033;-82
2023/01/27 09:18:54;;;;;;;3.47;1.80;;;;;;;;;;5009640;28;20040;-82
2023/01/27 09:21:19;;;;;;;3.70;1.95;;;;;;;;;;5012410;28;20513;-81
2023/01/27 09:23:47;;;;;;;3.30;1.80;;;;;;;;;;5012496;28;20061;-81
2023/01/27 09:26:13;;;;;;;3.38;1.90;;;;;;;;;;5022905;28;20448;-81
2023/01/27 09:28:38;;;;;;;3.40;2.10;;;;;;;;;;5009667;28;20029;-80
2023/01/27 09:31:04;;;;;;;4.82;2.00;;;;;;;;;;5026055;28;20121;-82
2023/01/27 09:33:29;;;;;;;4.35;2.03;;;;;;;;;;5005884;28;20393;-81
2023/01/27 09:36:01;;;;;;;4.80;2.20;;;;;;;;;;5031626;28;20580;-81
2023/01/27 09:38:30;;;;;;;3.60;1.90;;;;;;;;;;5020479;28;20120;-81
2023/01/27 09:41:26;;;;;;;4.93;1.83;;;;;;;;;;5014647;28;20083;-81
2023/01/27 09:44:07;;;;;;;4.05;2.00;;;;;;;;;;5005957;28;20034;-82
2023/01/27 09:46:49;;;;;;;3.85;1.85;;;;;;;;;;5027232;28;20056;-81
2023/01/27 09:49:19;;;;;;;5.68;2.10;;;;;;;;;;5032423;28;20026;-81
2023/01/27 09:52:00;;;;;;;3.47;1.75;;;;;;;;;;5018945;28;20543;-81
2023/01/27 09:54:43;;;;;;;4.43;2.00;;;;;;;;;;5021711;28;20029;-81
2023/01/27 09:57:11;;;;;;;;;;;;;;;;;;5034626;28;20021;-82
2023/01/27 10:00:01;;;;;;;3.28;1.80;;;;;;;;;;5031658;28;19925;-82
2023/01/27 10:02:42;;;;;;;3.92;2.20;;;;;;;;;;5030695;28;20076;-82
2023/01/27 10:05:14;;;;;;;5.00;2.13;;;;;;;;;;5031830;28;20041;-81
2023/01/27 10:08:19;;;;;;;4.40;2.23;;;;;;;;;;5009399;28;20120;-81
2023/01/27 10:11:16;;;;;;;5.25;2.10;;;;;;;;;;5003665;28;20428;-81
2023/01/27 10:14:04;;;;;;;3.95;2.22;;;;;;;;;;5028927;28;20030;-82
2023/01/27 10:16:51;;;;;;;3.95;2.10;;;;;;;;;;5028064;28;20078;-81
2023/01/27 10:19:39;;;;;;;6.55;2.28;;;;;;;;;;5010296;28;20052;-81
2023/01/27 10:22:26;;;;;;;3.35;2.03;;;;;;;;;;5006301;28;20049;-81
2023/01/27 10:25:19;;;;;;;4.22;2.20;;;;;;;;;;5021998;28;20026;-81
2023/01/27 10:27:54;;;;;;;3.58;1.95;;;;;;;;;;5011192;28;20080;-82
2023/01/27 10:30:33;;;;;;;4.28;2.08;;;;;;;;;;5033182;28;20496;-82
2023/01/27 10:33:14;;;;;;;3.63;1.98;;;;;;;;;;5026911;28;20026;-80
2023/01/27 10:35:51;;;;;;;4.55;2.13;;;;;;;;;;5011985;28;20424;-81
2023/01/27 10:38:26;;;;;;;5.00;1.98;;;;;;;;;;5012110;28;20029;-81
2023/01/27 10:40:54;;;;;;;4.10;2.30;;;;;;;;;;5020613;28;20029;-81
2023/01/27 10:43:48;;;;;;;4.47;2.28;;;;;;;;;;5024870;28;20029;-81
2023/01/27 10:46:35;;;;;;;6.15;2.40;;;;;;;;;;5033821;28;20031;-81
2023/01/27 10:49:06;;;;;;;4.70;2.55;;;;;;;;;;5035641;28;20120;-81
2023/01/27 10:51:42;;;;;;;4.90;2.30;;;;;;;;;;5018492;28;20037;-81
2023/01/27 10:54:14;;;;;;;3.97;2.35;;;;;;;;;;5014606;28;20033;-82
2023/01/27 10:56:45;;;;;;;4.13;2.40;;;;;;;;;;5028161;28;20029;-82
2023/01/27 10:59:19;;;;;;;4.25;2.20;;;;;;;;;;5012626;28;20037;-81
2023/01/27 11:02:01;;;;;;;3.70;2.20;;;;;;;;;;5005544;28;20375;-81
2023/01/27 11:04:50;;;;;;;3.70;2.10;;;;;;;;;;5006699;28;20033;-81
2023/01/27 11:07:19;;;;;;;4.22;2.35;;;;;;;;;;5027068;28;20029;-81
2023/01/27 11:10:01;;;;;;;4.53;2.40;;;;;;;;;;5027702;28;20144;-81
2023/01/27 11:12:49;;;;;;;3.75;1.80;;;;;;;;;;5009265;28;20114;-81
2023/01/27 11:15:32;;;;;;;3.58;2.00;;;;;;;;;;5026829;28;20033;-81
2023/01/27 11:18:10;;;;;;;;;;;;;;;;;;5008720;28;20033;-82
2023/01/27 11:20:42;;;;;;;4.20;1.95;;;;;;;;;;5004972;28;19921;-82
2023/01/27 11:23:18;;;;;;;4.25;2.35;;;;;;;;;;5013848;28;20029;-81
2023/01/27 11:25:54;;;;;;;5.05;2.60;;;;;;;;;;5026375;28;20040;-81
2023/01/27 11:28:44;;;;;;;4.15;2.20;;;;;;;;;;5009973;28;20409;-82
2023/01/27 11:31:40;;;;;;;4.97;2.50;;;;;;;;;;5027493;28;20482;-81
2023/01/27 11:34:18;;;;;;;4.28;2.17;;;;;;;;;;5020946;28;20473;-82
2023/01/27 11:36:44;;;;;;;4.22;2.30;;;;;;;;;;5006878;28;20059;-82
2023/01/27 11:39:11;;;;;;;5.18;2.70;;;;;;;;;;5016350;28;20032;-81
2023/01/27 11:41:39;;;;;;;5.57;2.75;;;;;;;;;;5023680;28;20060;-80
2023/01/27 11:44:11;;;;;;;3.47;2.15;;;;;;;;;;5009886;28;20037;-81
2023/01/27 11:46:37;;;;;;;3.65;2.10;;;;;;;;;;5005635;28;20037;-82
2023/01/27 11:49:03;;;;;;;4.13;2.30;;;;;;;;;;5028346;28;20031;-82
2023/01/27 11:51:37;;;;;;;4.88;2.60;;;;;;;;;;5021039;28;20029;-81
2023/01/27 11:54:17;;;;;;;5.82;2.50;;;;;;;;;;5023102;28;20068;-82
2023/01/27 11:56:46;;;;;;;4.55;2.42;;;;;;;;;;5025309;28;20029;-81
2023/01/27 11:59:21;;;;;;;4.55;2.40;;;;;;;;;;5021755;28;20029;-81
2023/01/27 12:01:57;;;;;;;5.60;2.90;;;;;;;;;;5026176;28;20029;-82
2023/01/27 12:04:44;;;;;;;5.60;2.60;;;;;;;;;;5006662;28;20033;-81
2023/01/27 12:07:23;;;;;;;5.20;2.70;;;;;;;;;;5006536;28;20064;-81
2023/01/27 12:09:49;;;;;;;4.85;2.60;;;;;;;;;;5004440;28;20037;-82
2023/01/27 12:12:14;;;;;;;5.30;2.50;;;;;;;;;;5004398;28;20021;-82
2023/01/27 12:14:56;;;;;;;5.28;2.50;;;;;;;;;;5023175;28;20029;-81
2023/01/27 12:17:47;;;;;;;7.75;2.92;;;;;;;;;;5007003;28;20045;-81
2023/01/27 12:20:34;;;;;;;4.22;2.30;;;;;;;;;;5018453;28;20481;-81
2023/01/27 12:23:22;;;;;;;4.15;2.17;;;;;;;;;;5009703;28;20120;-81
2023/01/27 12:25:57;;;;;;;3.97;2.17;;;;;;;;;;5013152;28;20030;-82
2023/01/27 12:28:28;;;;;;;4.50;2.42;;;;;;;;;;5009769;28;20087;-82
2023/01/27 12:30:56;;;;;;;6.80;2.88;;;;;;;;;;5022588;28;20661;-82
2023/01/27 12:33:27;;;;;;;4.78;2.67;;;;;;;;;;5027101;28;20025;-82
2023/01/27 12:35:57;;;;;;;4.35;2.40;;;;;;;;;;5024253;28;20554;-82
2023/01/27 12:38:25;;;;;;;4.68;2.55;;;;;;;;;;5008695;28;20021;-82
2023/01/27 12:41:00;;;;;;;6.28;2.65;;;;;;;;;;5002008;28;20544;-81
2023/01/27 12:43:26;;;;;;;4.90;2.60;;;;;;;;;;5007821;28;20405;-82
2023/01/27 12:46:12;;;;;;;4.65;2.50;;;;;;;;;;5021158;28;20037;-82
2023/01/27 12:48:49;;;;;;;4.13;2.17;;;;;;;;;;5026525;28;20029;-82
2023/01/27 12:51:16;;;;;;;3.67;2.08;;;;;;;;;;5019164;28;20040;-82
2023/01/27 12:53:44;;;;;;;4.90;2.45;;;;;;;;;;5039319;28;20067;-82
2023/01/27 12:56:15;;;;;;;4.18;2.20;;;;;;;;;;5019228;28;20449;-82
2023/01/27 12:59:02;;;;;;;5.00;2.40;;;;;;;;;;5029987;28;20451;-82
2023/01/27 13:01:40;;;;;;;3.80;2.15;;;;;;;;;;5007559;28;20489;-82
2023/01/27 13:04:14;;;;;;;5.80;2.70;;;;;;;;;;5029144;28;20103;-82
2023/01/27 13:06:50;;;;;;;3.88;2.30;;;;;;;;;;5009500;28;20125;-82
2023/01/27 13:09:25;;;;;;;4.10;2.13;;;;;;;;;;5027063;28;20477;-82
2023/01/27 13:11:51;;;;;;;4.10;2.20;;;;;;;;;;5027445;28;20117;-82
2023/01/27 13:14:18;;;;;;;3.97;2.22;;;;;;;;;;5013084;28;20034;-82
2023/01/27 13:16:51;;;;;;;4.53;2.50;;;;;;;;;;5017732;28;20079;-82
2023/01/27 13:19:17;;;;;;;4.65;2.35;;;;;;;;;;5015062;28;20034;-82
2023/01/27 13:21:45;;;;;;;4.63;2.60;;;;;;;;;;5013396;28;20116;-82
2023/01/27 13:24:32;;;;;;;5.28;2.53;;;;;;;;;;5011955;28;20533;-82
2023/01/27 13:27:01;;;;;;;4.30;2.25;;;;;;;;;;5015653;28;20034;-82
2023/01/27 13:29:32;;;;;;;4.60;2.20;;;;;;;;;;5033210;28;20487;-82
2023/01/27 13:32:17;;;;;;;4.43;2.50;;;;;;;;;;5030035;28;20032;-80
2023/01/27 13:34:49;;;;;;;4.15;2.03;;;;;;;;;;5029731;28;20476;-82
2023/01/27 13:37:23;;;;;;;4.50;2.35;;;;;;;;;;5029464;28;20112;-81
2023/01/27 13:40:04;;;;;;;4.50;2.33;;;;;;;;;;5010128;28;20456;-81
2023/01/27 13:42:42;;;;;;;5.57;2.70;;;;;;;;;;5025009;28;20041;-81
2023/01/27 13:45:15;;;;;;;4.53;2.38;;;;;;;;;;5011105;28;20025;-81
2023/01/27 13:47:57;;;;;;;4.43;2.30;;;;;;;;;;5005125;28;20033;-83
2023/01/27 13:50:45;;;;;;;4.10;2.17;;;;;;;;;;5024334;28;20393;-81
2023/01/27 13:53:14;;;;;;;4.25;2.30;;;;;;;;;;5020468;28;20060;-82
2023/01/27 13:56:03;;;;;;;3.95;1.98;;;;;;;;;;5023289;28;20021;-81
2023/01/27 13:58:51;;;;;;;4.53;2.50;;;;;;;;;;5025928;28;20499;-81
2023/01/27 14:01:43;;;;;;;4.00;2.20;;;;;;;;;;5015106;28;20033;-80
2023/01/27 14:04:19;;;;;;;4.45;2.20;;;;;;;;;;4999810;28;20540;-82
2023/01/27 14:06:56;;;;;;;4.65;2.63;;;;;;;;;;5019693;28;20433;-81
2023/01/27 14:09:33;;;;;;;4.13;2.30;;;;;;;;;;5024303;28;20082;-81
2023/01/27 14:12:09;;;;;;;4.88;2.60;;;;;;;;;;5027623;28;20049;-81
2023/01/27 14:14:49;;;;;;;4.63;2.35;;;;;;;;;;5008727;28;20025;-82
2023/01/27 14:17:40;;;;;;;4.30;2.47;;;;;;;;;;5029268;28;20438;-82
2023/01/27 14:20:11;;;;;;;3.55;1.98;;;;;;;;;;5011275;28;20041;-82
2023/01/27 14:22:59;;;;;;;4.53;2.47;;;;;;;;;;5015554;28;20029;-82
2023/01/27 14:25:50;;;;;;;4.75;2.55;;;;;;;;;;5012656;28;20025;-82
2023/01/27 14:28:30;;;;;;;4.22;2.53;;;;;;;;;;5013183;28;20055;-81
2023/01/27 14:31:09;;;;;;;4.05;2.13;;;;;;;;;;5019777;28;20045;-81
2023/01/27 14:33:42;;;;;;;5.13;2.38;;;;;;;;;;5009986;28;20370;-81
2023/01/27 14:36:37;;;;;;;4.38;2.35;;;;;;;;;;5009449;28;20485;-82
2023/01/27 14:39:30;;;;;;;4.68;2.50;;;;;;;;;;5020237;28;20041;-80
2023/01/27 14:42:25;;;;;;;4.53;2.60;;;;;;;;;;5008748;28;20473;-81
2023/01/27 14:45:12;;;;;;;3.78;2.20;;;;;;;;;;5020308;28;20029;-82
2023/01/27 14:48:01;;;;;;;5.60;2.40;;;;;;;;;;5030043;28;20029;-81
2023/01/27 14:50:44;;;;;;;4.70;2.50;;;;;;;;;;5001920;28;20419;-81
2023/01/27 14:53:36;;;;;;;4.53;2.30;;;;;;;;;;5011200;28;20143;-80
2023/01/27 14:56:34;;;;;;;5.72;2.95;;;;;;;;;;5013518;28;20037;-81
2023/01/27 14:59:14;;;;;;;5.63;3.05;;;;;;;;;;5016156;28;20025;-81
2023/01/27 15:01:55;;;;;;;4.95;2.88;;;;;;;;;;5008543;28;20036;-82
2023/01/27 15:04:43;;;;;;;4.85;2.38;;;;;;;;;;5034746;28;20362;-81
2023/01/27 15:07:58;;;;;;;5.60;2.67;;;;;;;;;;5016450;28;20029;-81
2023/01/27 15:10:28;;;;;;;4.47;2.28;;;;;;;;;;4998428;28;20033;-81
2023/01/27 15:13:04;;;;;;;5.40;2.63;;;;;;;;;;5015412;28;20397;-81
2023/01/27 15:15:54;;;;;;;5.20;2.47;;;;;;;;;;5031511;28;20029;-81
2023/01/27 15:18:44;;;;;;;5.55;3.20;;;;;;;;;;5019881;28;20435;-81
2023/01/27 15:21:34;;;;;;;5.22;2.50;;;;;;;;;;5011609;28;20036;-81
2023/01/27 15:24:02;;;;;;;4.82;2.70;;;;;;;;;;5015434;28;20025;-81
2023/01/27 15:26:30;;;;;;;4.68;2.70;;;;;;;;;;5033123;28;20029;-81
2023/01/27 15:28:57;;;;;;;4.95;3.08;;;;;;;;;;5015340;28;20017;-81
2023/01/27 15:31:28;;;;;;;5.03;3.10;;;;;;;;;;5022234;28;20437;-81
2023/01/27 15:34:13;;;;;;;5.05;2.88;;;;;;;;;;5022759;28;20021;-81
2023/01/27 15:36:58;;;;;;;6.55;3.08;;;;;;;;;;5016152;28;20033;-81
2023/01/27 15:39:24;;;;;;;6.60;3.33;;;;;;;;;;5014333;28;20039;-81
2023/01/27 15:42:01;;;;;;;5.30;3.10;;;;;;;;;;5032933;28;20029;-81